createdAt,value
2019-03-21T00:00:43.750Z,0.00
2019-03-21T00:01:43.706Z,0.00
2019-03-21T00:02:43.657Z,0.00
2019-03-21T00:03:43.612Z,0.00
2019-03-21T00:04:43.570Z,0.00
2019-03-21T00:05:43.519Z,0.00
2019-03-21T00:06:43.473Z,0.00
2019-03-21T00:07:43.426Z,0.00
2019-03-21T00:08:43.380Z,0.00
2019-03-21T00:09:43.364Z,0.00
2019-03-21T00:10:43.289Z,0.00
2019-03-21T00:11:43.241Z,0.00
2019-03-21T00:12:43.199Z,0.00
2019-03-21T00:13:43.149Z,0.00
2019-03-21T00:14:43.102Z,0.00
2019-03-21T00:15:43.056Z,0.00
2019-03-21T00:16:43.011Z,0.00
2019-03-21T00:17:42.964Z,0.00
2019-03-21T00:18:42.919Z,0.00
2019-03-21T00:19:42.872Z,0.00
2019-03-21T00:20:42.826Z,0.00
2019-03-21T00:21:42.779Z,0.00
2019-03-21T00:22:42.735Z,0.00
2019-03-21T00:23:42.687Z,0.00
2019-03-21T00:24:42.642Z,0.00
2019-03-21T00:25:42.600Z,0.00
2019-03-21T00:26:42.548Z,0.00
2019-03-21T00:27:42.501Z,0.00
2019-03-21T00:28:42.455Z,0.00
2019-03-21T00:29:42.410Z,0.00
2019-03-21T00:30:42.362Z,0.00
2019-03-21T00:31:42.316Z,0.00
2019-03-21T00:32:42.271Z,0.00
2019-03-21T00:33:42.223Z,0.00
2019-03-21T00:34:42.177Z,0.00
2019-03-21T00:35:42.130Z,0.00
2019-03-21T00:36:42.086Z,0.00
2019-03-21T00:37:42.038Z,0.00
2019-03-21T00:38:41.993Z,0.00
2019-03-21T00:39:41.945Z,0.00
2019-03-21T00:40:44.030Z,0.00
2019-03-21T00:41:41.852Z,0.00
2019-03-21T00:42:41.805Z,0.00
2019-03-21T00:43:41.759Z,0.00
2019-03-21T00:44:41.717Z,0.00
2019-03-21T00:45:41.666Z,0.00
2019-03-21T00:46:41.621Z,0.00
2019-03-21T00:47:41.573Z,0.00
2019-03-21T00:48:41.527Z,0.00
2019-03-21T00:49:41.480Z,0.00
2019-03-21T00:50:41.435Z,0.00
2019-03-21T00:51:41.389Z,0.00
2019-03-21T00:52:41.341Z,0.00
2019-03-21T00:53:41.294Z,0.00
2019-03-21T00:54:41.250Z,0.00
2019-03-21T00:55:41.204Z,0.00
2019-03-21T00:56:41.156Z,0.00
2019-03-21T00:57:41.109Z,0.00
2019-03-21T00:58:41.062Z,0.00
2019-03-21T00:59:41.016Z,0.00
2019-03-21T01:00:40.969Z,0.00
2019-03-21T01:01:40.930Z,0.00
2019-03-21T01:02:40.879Z,0.00
2019-03-21T01:03:40.830Z,0.00
2019-03-21T01:04:40.784Z,0.00
2019-03-21T01:05:40.740Z,0.00
2019-03-21T01:06:40.691Z,0.00
2019-03-21T01:07:40.644Z,0.00
2019-03-21T01:08:40.598Z,0.00
2019-03-21T01:09:40.551Z,0.00
2019-03-21T01:10:40.505Z,0.00
2019-03-21T01:11:40.458Z,0.00
2019-03-21T01:12:40.412Z,0.00
2019-03-21T01:13:40.368Z,0.00
2019-03-21T01:14:40.336Z,0.00
2019-03-21T01:15:40.272Z,0.00
2019-03-21T01:16:40.226Z,0.00
2019-03-21T01:17:40.180Z,0.00
2019-03-21T01:18:40.136Z,0.00
2019-03-21T01:19:40.086Z,0.00
2019-03-21T01:20:40.041Z,0.00
2019-03-21T01:21:39.995Z,0.00
2019-03-21T01:22:39.948Z,0.00
2019-03-21T01:23:39.904Z,0.00
2019-03-21T01:24:39.855Z,0.00
2019-03-21T01:25:39.811Z,0.00
2019-03-21T01:26:39.763Z,0.00
2019-03-21T01:27:39.717Z,0.00
2019-03-21T01:28:39.670Z,0.00
2019-03-21T01:29:39.623Z,0.00
2019-03-21T01:30:39.580Z,0.00
2019-03-21T01:31:39.530Z,0.00
2019-03-21T01:32:39.485Z,0.00
2019-03-21T01:33:39.453Z,0.00
2019-03-21T01:34:39.391Z,0.00
2019-03-21T01:35:39.344Z,0.00
2019-03-21T01:36:39.299Z,0.00
2019-03-21T01:37:39.252Z,0.00
2019-03-21T01:38:39.205Z,0.00
2019-03-21T01:39:39.159Z,0.00
2019-03-21T01:40:39.115Z,0.00
2019-03-21T01:41:39.066Z,0.00
2019-03-21T01:42:39.021Z,0.00
2019-03-21T01:43:38.973Z,0.00
2019-03-21T01:44:41.316Z,0.00
2019-03-21T01:45:38.883Z,0.00
2019-03-21T01:46:38.834Z,0.00
2019-03-21T01:47:38.788Z,0.00
2019-03-21T01:48:38.742Z,0.00
2019-03-21T01:49:38.699Z,0.00
2019-03-21T01:50:38.652Z,0.00
2019-03-21T01:51:38.602Z,0.00
2019-03-21T01:52:38.563Z,0.00
2019-03-21T01:53:38.509Z,0.00
2019-03-21T01:54:38.462Z,0.00
2019-03-21T01:55:38.417Z,0.00
2019-03-21T01:56:38.370Z,0.00
2019-03-21T01:57:38.354Z,0.00
2019-03-21T01:58:38.278Z,0.00
2019-03-21T01:59:38.231Z,0.00
2019-03-21T02:00:38.184Z,0.00
2019-03-21T02:01:38.143Z,0.00
2019-03-21T02:02:38.091Z,0.00
2019-03-21T02:03:38.045Z,0.00
2019-03-21T02:04:37.998Z,0.00
2019-03-21T02:05:37.952Z,0.00
2019-03-21T02:06:37.906Z,0.00
2019-03-21T02:07:37.859Z,0.00
2019-03-21T02:08:37.812Z,0.00
2019-03-21T02:09:37.768Z,0.00
2019-03-21T02:10:37.721Z,0.00
2019-03-21T02:11:38.815Z,0.00
2019-03-21T02:12:37.627Z,0.00
2019-03-21T02:13:37.581Z,0.00
2019-03-21T02:14:37.534Z,0.00
2019-03-21T02:15:37.487Z,0.00
2019-03-21T02:16:37.441Z,0.00
2019-03-21T02:17:37.395Z,0.00
2019-03-21T02:18:37.348Z,0.00
2019-03-21T02:19:37.303Z,0.00
2019-03-21T02:20:37.255Z,0.00
2019-03-21T02:21:37.214Z,0.00
2019-03-21T02:22:37.162Z,0.00
2019-03-21T02:23:37.117Z,0.00
2019-03-21T02:24:37.069Z,0.00
2019-03-21T02:25:37.023Z,0.00
2019-03-21T02:26:36.977Z,0.00
2019-03-21T02:27:36.930Z,0.00
2019-03-21T02:28:36.885Z,0.00
2019-03-21T02:29:36.838Z,0.00
2019-03-21T02:30:36.800Z,0.00
2019-03-21T02:31:36.745Z,0.00
2019-03-21T02:32:36.699Z,0.00
2019-03-21T02:33:36.652Z,0.00
2019-03-21T02:34:36.608Z,0.00
2019-03-21T02:35:36.564Z,0.00
2019-03-21T02:36:36.513Z,0.00
2019-03-21T02:37:36.476Z,0.00
2019-03-21T02:38:36.443Z,0.00
2019-03-21T02:39:36.375Z,0.00
2019-03-21T02:40:36.328Z,0.00
2019-03-21T02:41:36.290Z,0.00
2019-03-21T02:42:36.252Z,0.00
2019-03-21T02:43:36.189Z,0.00
2019-03-21T02:44:36.158Z,0.00
2019-03-21T02:45:36.095Z,0.00
2019-03-21T02:46:36.028Z,0.00
2019-03-21T02:47:36.002Z,0.00
2019-03-21T02:48:35.944Z,0.00
2019-03-21T02:49:35.901Z,0.00
2019-03-21T02:50:35.855Z,0.00
2019-03-21T02:51:35.808Z,0.00
2019-03-21T02:52:35.761Z,0.00
2019-03-21T02:53:35.723Z,0.00
2019-03-21T02:54:35.676Z,0.00
2019-03-21T02:55:35.611Z,0.00
2019-03-21T02:56:35.572Z,0.00
2019-03-21T02:57:35.520Z,0.00
2019-03-21T02:58:35.480Z,0.00
2019-03-21T02:59:35.432Z,0.00
2019-03-21T03:00:35.399Z,0.00
2019-03-21T03:01:35.351Z,0.00
2019-03-21T03:02:37.262Z,0.00
2019-03-21T03:03:35.249Z,0.00
2019-03-21T03:04:35.212Z,0.00
2019-03-21T03:05:35.154Z,0.00
2019-03-21T03:06:35.112Z,0.00
2019-03-21T03:07:35.061Z,0.00
2019-03-21T03:08:35.019Z,0.00
2019-03-21T03:09:34.960Z,0.00
2019-03-21T03:10:34.927Z,0.00
2019-03-21T03:11:34.925Z,0.00
2019-03-21T03:12:34.833Z,0.00
2019-03-21T03:13:34.775Z,0.00
2019-03-21T03:14:34.736Z,0.00
2019-03-21T03:15:34.708Z,0.00
2019-03-21T03:16:34.647Z,0.00
2019-03-21T03:17:34.591Z,0.00
2019-03-21T03:18:34.555Z,0.00
2019-03-21T03:19:34.503Z,0.00
2019-03-21T03:20:34.450Z,0.00
2019-03-21T03:21:34.429Z,0.00
2019-03-21T03:22:34.370Z,0.00
2019-03-21T03:23:34.318Z,0.00
2019-03-21T03:24:34.272Z,0.00
2019-03-21T03:25:34.234Z,0.00
2019-03-21T03:26:34.184Z,0.00
2019-03-21T03:27:34.137Z,0.00
2019-03-21T03:28:34.086Z,0.00
2019-03-21T03:29:34.039Z,0.00
2019-03-21T03:30:33.993Z,0.00
2019-03-21T03:31:33.959Z,0.00
2019-03-21T03:32:33.912Z,0.00
2019-03-21T03:33:33.876Z,0.00
2019-03-21T03:34:33.807Z,0.00
2019-03-21T03:35:33.753Z,0.00
2019-03-21T03:36:33.719Z,0.00
2019-03-21T03:37:33.680Z,0.00
2019-03-21T03:38:33.629Z,0.00
2019-03-21T03:39:36.785Z,0.00
2019-03-21T03:40:33.543Z,0.00
2019-03-21T03:41:33.494Z,0.00
2019-03-21T03:42:33.449Z,0.00
2019-03-21T03:43:33.395Z,0.00
2019-03-21T03:44:33.347Z,0.00
2019-03-21T03:45:37.929Z,0.00
2019-03-21T03:46:33.248Z,0.00
2019-03-21T03:47:33.203Z,0.00
2019-03-21T03:48:33.147Z,0.00
2019-03-21T03:49:33.103Z,0.00
2019-03-21T03:50:33.067Z,0.00
2019-03-21T03:51:33.028Z,0.00
2019-03-21T03:52:32.970Z,0.00
2019-03-21T03:53:32.931Z,0.00
2019-03-21T03:54:32.881Z,0.00
2019-03-21T03:55:32.849Z,0.00
2019-03-21T03:56:32.794Z,0.00
2019-03-21T03:57:32.748Z,0.00
2019-03-21T03:58:32.716Z,0.00
2019-03-21T03:59:32.643Z,0.00
2019-03-21T04:00:32.605Z,0.00
2019-03-21T04:01:32.547Z,0.00
2019-03-21T04:02:32.515Z,0.00
2019-03-21T04:03:32.462Z,0.00
2019-03-21T04:04:32.429Z,0.00
2019-03-21T04:05:32.364Z,0.00
2019-03-21T04:06:32.330Z,0.00
2019-03-21T04:07:32.275Z,0.00
2019-03-21T04:08:32.236Z,0.00
2019-03-21T04:09:32.179Z,0.00
2019-03-21T04:10:32.125Z,0.00
2019-03-21T04:11:32.084Z,0.00
2019-03-21T04:12:32.031Z,0.00
2019-03-21T04:13:31.992Z,0.00
2019-03-21T04:14:31.937Z,0.00
2019-03-21T04:15:31.920Z,0.00
2019-03-21T04:16:31.844Z,0.00
2019-03-21T04:17:31.798Z,0.00
2019-03-21T04:18:31.751Z,0.00
2019-03-21T04:19:31.706Z,0.00
2019-03-21T04:20:31.676Z,0.00
2019-03-21T04:21:31.630Z,0.00
2019-03-21T04:22:31.577Z,0.00
2019-03-21T04:23:31.540Z,0.00
2019-03-21T04:24:31.485Z,0.00
2019-03-21T04:25:31.432Z,0.00
2019-03-21T04:26:31.403Z,0.00
2019-03-21T04:27:31.331Z,0.00
2019-03-21T04:28:31.298Z,0.00
2019-03-21T04:29:31.258Z,0.00
2019-03-21T04:30:31.201Z,0.00
2019-03-21T04:31:31.159Z,0.00
2019-03-21T04:32:31.124Z,0.00
2019-03-21T04:33:31.009Z,0.00
2019-03-21T04:34:31.006Z,0.00
2019-03-21T04:35:30.958Z,0.00
2019-03-21T04:36:30.912Z,0.00
2019-03-21T04:37:30.867Z,0.00
2019-03-21T04:38:30.818Z,0.00
2019-03-21T04:39:30.779Z,0.00
2019-03-21T04:40:30.745Z,0.00
2019-03-21T04:41:30.694Z,0.00
2019-03-21T04:42:30.632Z,0.00
2019-03-21T04:43:30.605Z,0.00
2019-03-21T04:44:30.540Z,0.00
2019-03-21T04:45:30.504Z,0.00
2019-03-21T04:46:30.458Z,0.00
2019-03-21T04:47:30.406Z,0.00
2019-03-21T04:48:30.373Z,0.00
2019-03-21T04:49:30.325Z,0.00
2019-03-21T04:50:30.271Z,0.00
2019-03-21T04:51:30.224Z,0.00
2019-03-21T04:52:30.178Z,0.00
2019-03-21T04:53:30.126Z,0.00
2019-03-21T04:54:30.080Z,0.00
2019-03-21T04:55:30.026Z,0.00
2019-03-21T04:56:29.990Z,0.00
2019-03-21T04:57:29.948Z,0.00
2019-03-21T04:58:29.906Z,0.00
2019-03-21T04:59:29.850Z,0.00
2019-03-21T05:00:29.810Z,0.00
2019-03-21T05:01:29.754Z,0.00
2019-03-21T05:02:29.712Z,0.00
2019-03-21T05:03:29.678Z,0.00
2019-03-21T05:04:29.607Z,0.00
2019-03-21T05:05:29.565Z,0.00
2019-03-21T05:06:29.513Z,0.00
2019-03-21T05:07:29.499Z,0.00
2019-03-21T05:08:29.440Z,0.00
2019-03-21T05:09:29.381Z,0.00
2019-03-21T05:10:29.326Z,0.00
2019-03-21T05:11:29.292Z,0.00
2019-03-21T05:12:29.253Z,0.00
2019-03-21T05:13:29.199Z,0.00
2019-03-21T05:14:29.143Z,0.00
2019-03-21T05:15:29.093Z,0.00
2019-03-21T05:16:29.053Z,0.00
2019-03-21T05:17:29.012Z,0.00
2019-03-21T05:18:28.961Z,0.00
2019-03-21T05:19:28.918Z,0.00
2019-03-21T05:20:28.879Z,0.00
2019-03-21T05:21:28.828Z,0.00
2019-03-21T05:22:28.766Z,0.00
2019-03-21T05:23:28.728Z,0.00
2019-03-21T05:24:28.687Z,0.00
2019-03-21T05:25:28.685Z,0.00
2019-03-21T05:26:28.598Z,0.00
2019-03-21T05:27:28.540Z,0.00
2019-03-21T05:28:28.585Z,0.00
2019-03-21T05:29:28.446Z,0.00
2019-03-21T05:30:28.411Z,0.00
2019-03-21T05:31:28.351Z,0.00
2019-03-21T05:32:28.320Z,0.00
2019-03-21T05:33:28.266Z,0.00
2019-03-21T05:34:28.212Z,0.00
2019-03-21T05:35:28.164Z,0.00
2019-03-21T05:36:28.133Z,0.00
2019-03-21T05:37:28.078Z,0.00
2019-03-21T05:38:28.036Z,0.00
2019-03-21T05:39:27.990Z,0.00
2019-03-21T05:40:27.930Z,0.00
2019-03-21T05:41:27.888Z,0.00
2019-03-21T05:42:27.849Z,0.00
2019-03-21T05:43:27.800Z,0.00
2019-03-21T05:44:27.755Z,0.00
2019-03-21T05:45:27.701Z,0.00
2019-03-21T05:46:27.649Z,0.00
2019-03-21T05:47:27.595Z,0.00
2019-03-21T05:48:27.565Z,0.00
2019-03-21T05:49:27.521Z,0.00
2019-03-21T05:50:27.456Z,0.00
2019-03-21T05:51:27.410Z,0.00
2019-03-21T05:52:27.376Z,0.00
2019-03-21T05:53:27.322Z,0.00
2019-03-21T05:54:27.280Z,0.00
2019-03-21T05:55:27.234Z,0.00
2019-03-21T05:56:27.193Z,0.00
2019-03-21T05:57:27.130Z,0.00
2019-03-21T05:58:27.092Z,0.00
2019-03-21T05:59:27.033Z,0.00
2019-03-21T06:00:26.989Z,0.00
2019-03-21T06:01:26.948Z,0.00
2019-03-21T06:02:26.909Z,0.00
2019-03-21T06:03:26.867Z,0.00
2019-03-21T06:04:26.799Z,0.00
2019-03-21T06:05:26.767Z,0.00
2019-03-21T06:06:26.705Z,0.00
2019-03-21T06:07:26.658Z,0.00
2019-03-21T06:08:26.624Z,0.00
2019-03-21T06:09:26.572Z,0.00
2019-03-21T06:10:26.525Z,0.00
2019-03-21T06:11:26.483Z,0.00
2019-03-21T06:12:26.423Z,0.00
2019-03-21T06:13:26.377Z,0.00
2019-03-21T06:14:26.337Z,0.00
2019-03-21T06:15:26.295Z,0.00
2019-03-21T06:16:37.057Z,0.00
2019-03-21T06:17:26.209Z,0.00
2019-03-21T06:18:26.142Z,0.00
2019-03-21T06:19:26.095Z,0.00
2019-03-21T06:20:26.050Z,0.00
2019-03-21T06:21:26.009Z,0.00
2019-03-21T06:22:25.967Z,0.00
2019-03-21T06:23:25.927Z,0.00
2019-03-21T06:24:25.874Z,0.00
2019-03-21T06:25:25.916Z,0.00
2019-03-21T06:26:25.789Z,0.00
2019-03-21T06:27:25.733Z,0.00
2019-03-21T06:28:25.698Z,0.00
2019-03-21T06:29:25.646Z,0.00
2019-03-21T06:30:25.600Z,0.00
2019-03-21T06:31:25.556Z,0.00
2019-03-21T06:32:25.495Z,0.00
2019-03-21T06:33:25.451Z,0.00
2019-03-21T06:34:25.410Z,0.00
2019-03-21T06:35:25.365Z,0.00
2019-03-21T06:36:25.307Z,0.00
2019-03-21T06:37:25.259Z,0.00
2019-03-21T06:38:25.211Z,0.00
2019-03-21T06:39:25.199Z,0.00
2019-03-21T06:40:25.129Z,0.00
2019-03-21T06:41:25.082Z,0.00
2019-03-21T06:42:25.028Z,0.00
2019-03-21T06:43:24.974Z,0.00
2019-03-21T06:44:24.929Z,0.00
2019-03-21T06:45:24.895Z,0.00
2019-03-21T06:46:24.836Z,0.00
2019-03-21T06:47:24.800Z,0.00
2019-03-21T06:48:24.746Z,0.00
2019-03-21T06:49:24.699Z,0.00
2019-03-21T06:50:24.653Z,0.00
2019-03-21T06:51:24.600Z,0.00
2019-03-21T06:52:24.560Z,0.00
2019-03-21T06:53:24.498Z,0.00
2019-03-21T06:54:24.459Z,0.00
2019-03-21T06:55:24.495Z,0.00
2019-03-21T06:56:24.358Z,0.00
2019-03-21T06:57:24.330Z,0.00
2019-03-21T06:58:24.273Z,0.00
2019-03-21T06:59:24.225Z,0.00
2019-03-21T07:00:25.113Z,0.00
2019-03-21T07:01:24.130Z,0.00
2019-03-21T07:02:24.088Z,0.00
2019-03-21T07:03:24.033Z,0.00
2019-03-21T07:04:23.994Z,0.00
2019-03-21T07:05:26.582Z,0.00
2019-03-21T07:06:23.901Z,0.00
2019-03-21T07:07:23.849Z,0.00
2019-03-21T07:08:23.802Z,0.00
2019-03-21T07:09:23.776Z,0.00
2019-03-21T07:10:23.713Z,0.00
2019-03-21T07:11:23.661Z,0.00
2019-03-21T07:12:23.619Z,0.00
2019-03-21T07:13:23.580Z,0.00
2019-03-21T07:14:23.513Z,0.00
2019-03-21T07:15:23.486Z,0.00
2019-03-21T07:16:23.430Z,0.00
2019-03-21T07:17:23.386Z,0.00
2019-03-21T07:18:23.339Z,0.00
2019-03-21T07:19:23.279Z,0.00
2019-03-21T07:20:23.233Z,0.00
2019-03-21T07:21:23.195Z,0.00
2019-03-21T07:22:23.138Z,0.00
2019-03-21T07:23:23.094Z,0.00
2019-03-21T07:24:23.051Z,0.00
2019-03-21T07:25:23.010Z,0.00
2019-03-21T07:26:22.970Z,0.00
2019-03-21T07:27:22.911Z,0.00
2019-03-21T07:28:22.870Z,0.00
2019-03-21T07:29:22.810Z,0.00
2019-03-21T07:30:22.775Z,0.00
2019-03-21T07:31:22.716Z,0.00
2019-03-21T07:32:33.108Z,0.00
2019-03-21T07:33:22.634Z,0.00
2019-03-21T07:34:22.574Z,0.00
2019-03-21T07:35:22.535Z,0.00
2019-03-21T07:36:22.488Z,0.00
2019-03-21T07:37:22.434Z,0.00
2019-03-21T07:38:22.394Z,0.00
2019-03-21T07:39:22.362Z,0.00
2019-03-21T07:40:22.293Z,0.00
2019-03-21T07:41:22.259Z,0.00
2019-03-21T07:42:22.207Z,0.00
2019-03-21T07:43:22.484Z,0.00
2019-03-21T07:44:22.112Z,0.00
2019-03-21T07:45:22.058Z,0.00
2019-03-21T07:46:22.048Z,0.00
2019-03-21T07:47:21.983Z,0.00
2019-03-21T07:48:21.918Z,0.00
2019-03-21T07:49:21.888Z,0.00
2019-03-21T07:50:21.829Z,0.00
2019-03-21T07:51:21.775Z,0.00
2019-03-21T07:52:21.740Z,0.00
2019-03-21T07:53:22.217Z,0.00
2019-03-21T07:54:21.640Z,0.00
2019-03-21T07:55:21.608Z,0.00
2019-03-21T07:56:21.560Z,0.00
2019-03-21T07:57:21.514Z,0.00
2019-03-21T07:58:21.444Z,0.00
2019-03-21T07:59:21.397Z,0.00
2019-03-21T08:00:21.362Z,0.00
2019-03-21T08:01:21.315Z,0.00
2019-03-21T08:02:21.257Z,0.00
2019-03-21T08:03:21.228Z,0.00
2019-03-21T08:04:21.169Z,0.00
2019-03-21T08:05:21.134Z,0.00
2019-03-21T08:06:21.067Z,0.00
2019-03-21T08:07:21.027Z,0.00
2019-03-21T08:08:20.973Z,0.00
2019-03-21T08:09:20.938Z,0.00
2019-03-21T08:10:20.899Z,0.00
2019-03-21T08:11:20.832Z,0.00
2019-03-21T08:12:20.788Z,0.00
2019-03-21T08:13:20.750Z,0.00
2019-03-21T08:14:20.702Z,0.00
2019-03-21T08:15:20.664Z,0.00
2019-03-21T08:16:20.625Z,0.00
2019-03-21T08:17:20.549Z,0.00
2019-03-21T08:18:20.529Z,0.00
2019-03-21T08:19:20.475Z,0.00
2019-03-21T08:20:20.420Z,0.00
2019-03-21T08:21:20.361Z,0.00
2019-03-21T08:22:20.314Z,0.00
2019-03-21T08:23:20.280Z,0.00
2019-03-21T08:24:20.229Z,0.00
2019-03-21T08:25:20.191Z,0.00
2019-03-21T08:26:20.132Z,0.00
2019-03-21T08:27:20.090Z,0.00
2019-03-21T08:28:20.050Z,0.00
2019-03-21T08:29:19.991Z,0.00
2019-03-21T08:30:19.956Z,0.00
2019-03-21T08:31:19.889Z,0.00
2019-03-21T08:32:19.854Z,0.00
2019-03-21T08:33:19.807Z,0.00
2019-03-21T08:34:19.752Z,0.00
2019-03-21T08:35:19.701Z,0.00
2019-03-21T08:36:19.666Z,0.00
2019-03-21T08:37:19.614Z,0.00
2019-03-21T08:38:19.559Z,0.00
2019-03-21T08:39:19.512Z,0.00
2019-03-21T08:40:19.473Z,0.00
2019-03-21T08:41:19.431Z,0.00
2019-03-21T08:42:19.378Z,0.00
2019-03-21T08:43:19.330Z,0.00
2019-03-21T08:44:19.284Z,0.00
2019-03-21T08:45:19.242Z,0.00
2019-03-21T08:46:19.220Z,0.00
2019-03-21T08:47:19.135Z,0.00
2019-03-21T08:48:19.104Z,0.00
2019-03-21T08:49:19.053Z,0.00
2019-03-21T08:50:18.995Z,0.00
2019-03-21T08:51:18.946Z,0.00
2019-03-21T08:52:18.906Z,0.00
2019-03-21T08:53:18.889Z,0.00
2019-03-21T08:54:18.813Z,0.00
2019-03-21T08:55:18.759Z,0.00
2019-03-21T08:56:18.710Z,0.00
2019-03-21T08:57:18.670Z,0.00
2019-03-21T08:58:18.628Z,0.00
2019-03-21T08:59:18.578Z,0.00
2019-03-21T09:00:18.536Z,0.00
2019-03-21T09:01:18.494Z,0.00
2019-03-21T09:02:18.427Z,0.00
2019-03-21T09:03:18.394Z,0.00
2019-03-21T09:04:18.340Z,0.00
2019-03-21T09:05:18.288Z,0.00
2019-03-21T09:06:18.246Z,0.00
2019-03-21T09:07:18.198Z,0.00
2019-03-21T09:08:18.156Z,0.00
2019-03-21T09:09:18.108Z,0.00
2019-03-21T09:10:18.061Z,0.00
2019-03-21T09:11:18.014Z,0.00
2019-03-21T09:12:17.957Z,0.00
2019-03-21T09:13:17.919Z,0.00
2019-03-21T09:14:17.879Z,0.00
2019-03-21T09:15:17.832Z,0.00
2019-03-21T09:16:17.779Z,0.00
2019-03-21T09:17:17.718Z,0.00
2019-03-21T09:18:17.681Z,0.00
2019-03-21T09:19:17.630Z,0.00
2019-03-21T09:20:18.909Z,0.00
2019-03-21T09:21:19.833Z,0.00
2019-03-21T09:22:17.496Z,0.00
2019-03-21T09:23:17.446Z,0.00
2019-03-21T09:24:17.400Z,0.00
2019-03-21T09:25:17.351Z,0.00
2019-03-21T09:26:17.295Z,0.00
2019-03-21T09:27:17.258Z,0.00
2019-03-21T09:28:17.217Z,0.00
2019-03-21T09:29:17.163Z,0.00
2019-03-21T09:30:17.123Z,0.00
2019-03-21T09:31:17.063Z,0.00
2019-03-21T09:32:17.060Z,0.00
2019-03-21T09:33:16.961Z,0.00
2019-03-21T09:34:16.926Z,0.00
2019-03-21T09:35:16.866Z,0.00
2019-03-21T09:36:16.842Z,0.00
2019-03-21T09:37:16.773Z,0.00
2019-03-21T09:38:16.733Z,0.00
2019-03-21T09:39:16.690Z,0.00
2019-03-21T09:40:16.657Z,0.00
2019-03-21T09:41:16.593Z,0.00
2019-03-21T09:42:16.535Z,0.00
2019-03-21T09:43:16.489Z,0.00
2019-03-21T09:44:16.472Z,0.00
2019-03-21T09:45:16.399Z,0.00
2019-03-21T09:46:16.358Z,0.00
2019-03-21T09:47:16.307Z,0.00
2019-03-21T09:48:16.259Z,0.00
2019-03-21T09:49:16.212Z,0.00
2019-03-21T09:50:16.164Z,0.00
2019-03-21T09:51:16.118Z,0.00
2019-03-21T09:52:16.086Z,0.00
2019-03-21T09:53:16.022Z,0.00
2019-03-21T09:54:15.987Z,0.00
2019-03-21T09:55:16.136Z,0.00
2019-03-21T09:56:15.898Z,0.00
2019-03-21T09:57:15.835Z,0.00
2019-03-21T09:58:15.780Z,0.00
2019-03-21T09:59:15.740Z,0.00
2019-03-21T10:00:15.694Z,0.00
2019-03-21T10:01:15.656Z,0.00
2019-03-21T10:02:15.614Z,0.00
2019-03-21T10:03:15.559Z,0.00
2019-03-21T10:04:15.506Z,0.00
2019-03-21T10:05:15.459Z,0.00
2019-03-21T10:06:15.427Z,0.00
2019-03-21T10:07:15.365Z,0.00
2019-03-21T10:08:15.312Z,5.63
2019-03-21T10:09:15.267Z,5.63
2019-03-21T10:10:18.974Z,5.63
2019-03-21T10:11:15.183Z,5.63
2019-03-21T10:12:15.137Z,5.63
2019-03-21T10:13:15.089Z,5.63
2019-03-21T10:14:15.036Z,5.63
2019-03-21T10:15:14.987Z,5.63
2019-03-21T10:16:14.946Z,5.63
2019-03-21T10:17:14.900Z,5.63
2019-03-21T10:18:14.839Z,5.63
2019-03-21T10:19:14.800Z,5.63
2019-03-21T10:20:14.749Z,11.25
2019-03-21T10:21:14.697Z,11.25
2019-03-21T10:22:14.666Z,11.25
2019-03-21T10:23:14.597Z,11.25
2019-03-21T10:24:14.573Z,11.25
2019-03-21T10:25:14.522Z,11.25
2019-03-21T10:26:14.453Z,11.25
2019-03-21T10:27:14.416Z,11.25
2019-03-21T10:28:14.371Z,11.25
2019-03-21T10:29:14.348Z,11.25
2019-03-21T10:30:14.283Z,16.88
2019-03-21T10:31:14.229Z,16.88
2019-03-21T10:32:14.806Z,16.88
2019-03-21T10:33:14.145Z,16.88
2019-03-21T10:34:14.098Z,16.88
2019-03-21T10:35:14.039Z,16.88
2019-03-21T10:36:16.017Z,16.88
2019-03-21T10:37:13.945Z,11.25
2019-03-21T10:38:13.898Z,11.25
2019-03-21T10:39:13.858Z,11.25
2019-03-21T10:40:13.805Z,11.25
2019-03-21T10:41:13.743Z,11.25
2019-03-21T10:42:13.697Z,11.25
2019-03-21T10:43:13.657Z,11.25
2019-03-21T10:44:13.616Z,11.25
2019-03-21T10:45:13.771Z,11.25
2019-03-21T10:46:13.507Z,11.25
2019-03-21T10:47:13.461Z,11.25
2019-03-21T10:48:13.415Z,11.25
2019-03-21T10:49:13.369Z,11.25
2019-03-21T10:50:13.321Z,11.25
2019-03-21T10:51:13.301Z,16.88
2019-03-21T10:52:13.233Z,16.88
2019-03-21T10:53:13.199Z,16.88
2019-03-21T10:54:13.132Z,16.88
2019-03-21T10:55:13.104Z,16.88
2019-03-21T10:56:13.046Z,16.88
2019-03-21T10:57:12.994Z,11.25
2019-03-21T10:58:12.952Z,11.25
2019-03-21T10:59:12.913Z,11.25
2019-03-21T11:00:12.852Z,11.25
2019-03-21T11:01:12.818Z,11.25
2019-03-21T11:02:12.762Z,11.25
2019-03-21T11:03:12.705Z,11.25
2019-03-21T11:04:12.675Z,11.25
2019-03-21T11:05:12.633Z,11.25
2019-03-21T11:06:12.569Z,11.25
2019-03-21T11:07:12.535Z,11.25
2019-03-21T11:08:12.497Z,11.25
2019-03-21T11:09:12.438Z,11.25
2019-03-21T11:10:12.371Z,11.25
2019-03-21T11:11:12.331Z,11.25
2019-03-21T11:12:12.306Z,11.25
2019-03-21T11:13:12.249Z,11.25
2019-03-21T11:14:12.185Z,11.25
2019-03-21T11:15:12.138Z,11.25
2019-03-21T11:16:12.106Z,11.25
2019-03-21T11:17:12.065Z,5.63
2019-03-21T11:18:11.992Z,5.63
2019-03-21T11:19:11.969Z,5.63
2019-03-21T11:20:11.898Z,5.63
2019-03-21T11:21:11.864Z,11.25
2019-03-21T11:22:11.825Z,11.25
2019-03-21T11:23:11.779Z,11.25
2019-03-21T11:24:11.721Z,11.25
2019-03-21T11:25:11.677Z,11.25
2019-03-21T11:26:11.636Z,11.25
2019-03-21T11:27:11.590Z,11.25
2019-03-21T11:28:11.534Z,11.25
2019-03-21T11:29:11.487Z,11.25
2019-03-21T11:30:15.976Z,16.88
2019-03-21T11:31:11.387Z,16.88
2019-03-21T11:32:11.330Z,16.88
2019-03-21T11:33:11.339Z,16.88
2019-03-21T11:34:11.247Z,16.88
2019-03-21T11:35:11.210Z,16.88
2019-03-21T11:36:11.149Z,16.88
2019-03-21T11:37:11.100Z,16.88
2019-03-21T11:38:11.055Z,16.88
2019-03-21T11:39:11.019Z,16.88
2019-03-21T11:40:10.958Z,16.88
2019-03-21T11:41:10.917Z,16.88
2019-03-21T11:42:10.877Z,16.88
2019-03-21T11:43:10.849Z,16.88
2019-03-21T11:44:10.782Z,22.50
2019-03-21T11:45:10.716Z,22.50
2019-03-21T11:46:10.674Z,16.88
2019-03-21T11:47:10.626Z,16.88
2019-03-21T11:48:10.577Z,11.25
2019-03-21T11:49:10.532Z,11.25
2019-03-21T11:50:10.491Z,11.25
2019-03-21T11:51:10.461Z,11.25
2019-03-21T11:52:18.247Z,11.25
2019-03-21T11:53:10.356Z,16.88
2019-03-21T11:54:10.308Z,16.88
2019-03-21T11:55:10.255Z,16.88
2019-03-21T11:56:12.868Z,16.88
2019-03-21T11:57:10.145Z,11.25
2019-03-21T11:58:10.108Z,11.25
2019-03-21T11:59:10.067Z,11.25
2019-03-21T12:00:10.019Z,11.25
2019-03-21T12:01:09.973Z,11.25
2019-03-21T12:02:09.917Z,11.25
2019-03-21T12:03:09.874Z,11.25
2019-03-21T12:04:09.812Z,11.25
2019-03-21T12:05:09.763Z,16.88
2019-03-21T12:06:09.722Z,16.88
2019-03-21T12:07:09.691Z,22.50
2019-03-21T12:08:09.631Z,22.50
2019-03-21T12:09:09.590Z,28.13
2019-03-21T12:10:09.558Z,39.38
2019-03-21T12:11:09.501Z,39.38
2019-03-21T12:12:09.433Z,45.00
2019-03-21T12:13:09.401Z,45.00
2019-03-21T12:14:09.352Z,45.00
2019-03-21T12:15:09.303Z,50.63
2019-03-21T12:16:09.252Z,56.25
2019-03-21T12:17:09.209Z,61.88
2019-03-21T12:18:09.152Z,61.88
2019-03-21T12:19:09.101Z,61.88
2019-03-21T12:20:09.075Z,67.50
2019-03-21T12:21:09.029Z,61.88
2019-03-21T12:22:08.981Z,61.88
2019-03-21T12:23:08.911Z,56.25
2019-03-21T12:24:08.900Z,56.25
2019-03-21T12:25:08.817Z,56.25
2019-03-21T12:26:08.777Z,56.25
2019-03-21T12:27:08.726Z,56.25
2019-03-21T12:28:08.683Z,61.88
2019-03-21T12:29:08.648Z,61.88
2019-03-21T12:30:08.596Z,61.88
2019-03-21T12:31:08.533Z,61.88
2019-03-21T12:32:08.497Z,56.25
2019-03-21T12:33:08.439Z,61.88
2019-03-21T12:34:08.400Z,67.50
2019-03-21T12:35:08.351Z,67.50
2019-03-21T12:36:08.309Z,67.50
2019-03-21T12:37:08.266Z,67.50
2019-03-21T12:38:08.214Z,67.50
2019-03-21T12:39:08.171Z,67.50
2019-03-21T12:40:08.115Z,67.50
2019-03-21T12:41:08.080Z,73.13
2019-03-21T12:42:08.015Z,73.13
2019-03-21T12:43:07.963Z,73.13
2019-03-21T12:44:07.917Z,84.38
2019-03-21T12:45:07.898Z,84.38
2019-03-21T12:46:07.836Z,95.63
2019-03-21T12:47:07.792Z,95.63
2019-03-21T12:48:07.737Z,90.00
2019-03-21T12:49:07.695Z,90.00
2019-03-21T12:50:07.648Z,90.00
2019-03-21T12:51:07.600Z,95.63
2019-03-21T12:52:07.556Z,90.00
2019-03-21T12:53:07.500Z,73.13
2019-03-21T12:54:07.492Z,67.50
2019-03-21T12:55:07.411Z,56.25
2019-03-21T12:56:07.351Z,50.63
2019-03-21T12:57:07.313Z,39.38
2019-03-21T12:58:07.262Z,39.38
2019-03-21T12:59:07.208Z,33.75
2019-03-21T13:00:07.374Z,33.75
2019-03-21T13:01:07.120Z,39.38
2019-03-21T13:02:07.070Z,39.38
2019-03-21T13:03:07.033Z,33.75
2019-03-21T13:04:07.003Z,33.75
2019-03-21T13:05:06.929Z,33.75
2019-03-21T13:06:06.892Z,39.38
2019-03-21T13:07:06.851Z,39.38
2019-03-21T13:08:06.808Z,39.38
2019-03-21T13:09:06.742Z,45.00
2019-03-21T13:10:06.702Z,50.63
2019-03-21T13:11:06.662Z,61.88
2019-03-21T13:12:06.611Z,67.50